createdAt,value
2023-01-27T00:01:16.018Z,47.88
2023-01-27T00:03:43.217Z,30.60
2023-01-27T00:06:11.960Z,42.20
2023-01-27T00:08:39.713Z,37.08
2023-01-27T00:11:25.408Z,38.53
2023-01-27T00:13:52.575Z,40.25
2023-01-27T00:16:19.770Z,33.33
2023-01-27T00:18:47.736Z,34.80
2023-01-27T00:21:33.544Z,34.05
2023-01-27T00:24:19.311Z,40.90
2023-01-27T00:26:46.584Z,36.80
2023-01-27T00:29:13.674Z,41.53
2023-01-27T00:31:59.677Z,41.38
2023-01-27T00:34:26.873Z,43.50
2023-01-27T00:36:54.967Z,42.30
2023-01-27T00:39:22.130Z,45.88
2023-01-27T00:41:49.259Z,45.20
2023-01-27T00:44:17.249Z,38.70
2023-01-27T00:46:44.801Z,41.25
2023-01-27T00:49:13.656Z,40.83
2023-01-27T00:51:42.236Z,40.28
2023-01-27T00:54:09.454Z,37.42
2023-01-27T00:56:38.490Z,44.40
2023-01-27T00:59:06.260Z,40.65
2023-01-27T01:01:34.448Z,43.33
2023-01-27T01:04:02.002Z,44.83
2023-01-27T01:06:29.104Z,44.25
2023-01-27T01:08:59.308Z,41.70
2023-01-27T01:11:27.454Z,42.60
2023-01-27T01:13:56.516Z,39.30
2023-01-27T01:16:25.627Z,38.03
2023-01-27T01:18:57.702Z,46.53
2023-01-27T01:21:25.068Z,39.45
2023-01-27T01:23:52.245Z,37.67
2023-01-27T01:26:19.262Z,37.70
2023-01-27T01:33:38.235Z,37.85
2023-01-27T01:36:15.187Z,37.30
2023-01-27T01:38:42.984Z,35.85
2023-01-27T01:41:18.751Z,35.92
2023-01-27T01:43:47.855Z,38.35
2023-01-27T01:46:15.540Z,36.63
2023-01-27T01:48:49.825Z,36.65
2023-01-27T01:51:39.432Z,35.83
2023-01-27T01:54:21.468Z,31.20
2023-01-27T01:57:17.528Z,29.45
2023-01-27T01:59:57.140Z,30.45
2023-01-27T02:02:26.549Z,34.33
2023-01-27T02:05:04.978Z,33.08
2023-01-27T02:07:45.260Z,36.05
2023-01-27T02:10:13.134Z,32.50
2023-01-27T02:12:41.149Z,36.15
2023-01-27T02:15:10.686Z,27.70
2023-01-27T02:17:41.016Z,34.95
2023-01-27T02:20:33.039Z,37.97
2023-01-27T02:23:22.132Z,33.97
2023-01-27T02:26:20.293Z,33.03
2023-01-27T02:29:00.370Z,35.90
2023-01-27T02:31:27.640Z,30.50
2023-01-27T02:34:02.732Z,35.80
2023-01-27T02:36:52.944Z,35.33
2023-01-27T02:40:03.500Z,34.90
2023-01-27T02:42:31.161Z,36.38
2023-01-27T02:45:12.957Z,34.05
2023-01-27T02:47:41.010Z,36.38
2023-01-27T02:50:08.889Z,35.13
2023-01-27T02:52:36.390Z,40.25
2023-01-27T02:55:04.217Z,41.38
2023-01-27T02:57:31.526Z,39.83
2023-01-27T03:00:19.689Z,35.60
2023-01-27T03:02:47.209Z,38.85
2023-01-27T03:05:15.812Z,38.05
2023-01-27T03:07:43.971Z,33.75
2023-01-27T03:10:11.396Z,35.05
2023-01-27T03:12:38.509Z,35.83
2023-01-27T03:15:27.894Z,34.30
2023-01-27T03:18:11.791Z,37.40
2023-01-27T03:20:41.915Z,42.15
2023-01-27T03:23:10.921Z,38.50
2023-01-27T03:25:46.222Z,38.92
2023-01-27T03:28:15.798Z,34.55
2023-01-27T03:31:08.181Z,34.80
2023-01-27T03:33:45.085Z,37.85
2023-01-27T03:36:53.073Z,35.60
2023-01-27T03:39:38.826Z,35.80
2023-01-27T03:42:30.684Z,40.60
2023-01-27T03:45:16.456Z,43.35
2023-01-27T03:47:43.880Z,41.85
2023-01-27T03:50:11.508Z,39.28
2023-01-27T03:53:05.369Z,36.05
2023-01-27T03:55:35.930Z,38.30
2023-01-27T03:58:20.002Z,50.53
2023-01-27T04:00:52.462Z,48.88
2023-01-27T04:06:29.573Z,46.08
2023-01-27T04:09:40.087Z,42.65
2023-01-27T04:12:08.560Z,34.88
2023-01-27T04:14:43.859Z,46.88
2023-01-27T04:17:36.998Z,45.65
2023-01-27T04:20:28.751Z,50.15
2023-01-27T04:23:28.748Z,52.90
2023-01-27T04:26:05.621Z,47.97
2023-01-27T04:28:43.786Z,42.45
2023-01-27T04:31:12.035Z,38.28
2023-01-27T04:33:39.193Z,50.05
2023-01-27T04:36:06.641Z,41.13
2023-01-27T04:38:34.062Z,43.45
2023-01-27T04:41:03.603Z,43.35
2023-01-27T04:43:30.872Z,46.42
2023-01-27T04:45:58.411Z,45.40
2023-01-27T04:48:25.640Z,46.63
2023-01-27T04:50:53.364Z,43.65
2023-01-27T04:53:21.207Z,33.80
2023-01-27T04:55:50.040Z,37.70
2023-01-27T04:58:20.461Z,38.05
2023-01-27T05:00:47.715Z,34.08
2023-01-27T05:03:14.955Z,37.25
2023-01-27T05:05:42.075Z,35.33
2023-01-27T05:08:11.755Z,41.63
2023-01-27T05:10:39.110Z,37.92
2023-01-27T05:13:06.368Z,44.20
2023-01-27T05:15:33.888Z,42.17
2023-01-27T05:18:01.304Z,43.20
2023-01-27T05:20:28.775Z,48.80
2023-01-27T05:26:31.458Z,40.50
2023-01-27T05:29:00.713Z,50.33
2023-01-27T05:31:34.254Z,46.20
2023-01-27T05:34:04.323Z,41.50
2023-01-27T05:36:35.039Z,47.58
2023-01-27T05:39:02.779Z,38.55
2023-01-27T05:41:31.584Z,41.33
2023-01-27T05:44:01.746Z,42.53
2023-01-27T05:46:32.213Z,41.95
2023-01-27T05:49:05.267Z,43.35
2023-01-27T05:51:38.334Z,44.75
2023-01-27T05:54:06.865Z,47.88
2023-01-27T05:56:35.688Z,45.72
2023-01-27T05:59:17.586Z,43.33
2023-01-27T06:01:52.885Z,46.13
2023-01-27T06:04:24.853Z,48.08
2023-01-27T06:07:00.019Z,52.15
2023-01-27T06:09:33.333Z,48.97
2023-01-27T06:15:24.763Z,41.92
2023-01-27T06:18:02.856Z,46.40
2023-01-27T06:20:41.742Z,50.47
2023-01-27T06:23:12.858Z,47.50
2023-01-27T06:25:44.378Z,51.33
2023-01-27T06:28:30.085Z,38.97
2023-01-27T06:31:06.171Z,41.80
2023-01-27T06:33:34.322Z,55.90
2023-01-27T06:36:09.843Z,42.40
2023-01-27T06:38:38.526Z,49.22
2023-01-27T06:41:15.552Z,45.30
2023-01-27T06:43:44.668Z,37.20
2023-01-27T06:46:19.816Z,48.50
2023-01-27T06:48:47.219Z,46.15
2023-01-27T06:51:24.243Z,48.83
2023-01-27T06:53:55.295Z,43.00
2023-01-27T06:56:36.840Z,43.15
2023-01-27T06:59:14.969Z,42.15
2023-01-27T07:02:16.645Z,48.22
2023-01-27T07:04:44.031Z,39.95
2023-01-27T07:07:11.189Z,44.05
2023-01-27T07:09:51.768Z,39.83
2023-01-27T07:12:19.871Z,36.92
2023-01-27T07:14:47.181Z,34.17
2023-01-27T07:17:14.666Z,39.33
2023-01-27T07:19:50.083Z,31.25
2023-01-27T07:22:24.375Z,38.03
2023-01-27T07:24:52.398Z,32.88
2023-01-27T07:27:20.423Z,38.15
2023-01-27T07:29:48.395Z,38.30
2023-01-27T07:32:19.023Z,31.42
2023-01-27T07:34:47.584Z,33.65
2023-01-27T07:37:14.927Z,31.95
2023-01-27T07:39:42.795Z,42.65
2023-01-27T07:42:10.549Z,34.45
2023-01-27T07:44:37.704Z,39.63
2023-01-27T07:47:08.281Z,34.60
2023-01-27T07:49:35.808Z,42.38
2023-01-27T07:52:03.264Z,46.30
2023-01-27T07:54:30.534Z,34.47
2023-01-27T07:57:01.596Z,35.33
2023-01-27T07:59:29.024Z,34.15
2023-01-27T08:01:56.263Z,33.75
2023-01-27T08:04:23.716Z,30.98
2023-01-27T08:06:51.196Z,42.20
2023-01-27T08:09:18.953Z,37.83
2023-01-27T08:11:46.854Z,45.70
2023-01-27T08:14:14.055Z,42.45
2023-01-27T08:16:44.437Z,43.90
2023-01-27T08:19:11.663Z,43.63
2023-01-27T08:21:38.618Z,36.58
2023-01-27T08:24:06.298Z,45.55
2023-01-27T08:26:33.748Z,29.30
2023-01-27T08:29:01.307Z,37.63
2023-01-27T08:31:29.711Z,41.03
2023-01-27T08:33:56.775Z,39.95
2023-01-27T08:36:25.311Z,37.20
2023-01-27T08:39:03.845Z,46.35
2023-01-27T08:41:31.255Z,34.28
2023-01-27T08:44:01.556Z,32.50
2023-01-27T08:46:28.867Z,31.48
2023-01-27T08:48:56.044Z,32.65
2023-01-27T08:51:23.380Z,31.25
2023-01-27T08:53:50.481Z,27.90
2023-01-27T08:56:17.785Z,26.08
2023-01-27T08:58:49.262Z,29.75
2023-01-27T09:01:21.128Z,27.35
2023-01-27T09:03:49.016Z,28.35
2023-01-27T09:06:17.097Z,25.88
2023-01-27T09:09:06.393Z,20.70
2023-01-27T09:11:34.139Z,22.85
2023-01-27T09:14:01.345Z,26.33
2023-01-27T09:16:29.539Z,27.48
2023-01-27T09:18:57.824Z,27.58
2023-01-27T09:21:26.453Z,27.48
2023-01-27T09:23:53.575Z,25.10
2023-01-27T09:26:27.186Z,28.88
2023-01-27T09:28:54.243Z,31.70
2023-01-27T09:31:21.462Z,31.67
2023-01-27T09:33:51.694Z,34.85
2023-01-27T09:36:22.001Z,32.00
2023-01-27T09:39:01.386Z,30.95
2023-01-27T09:41:59.223Z,32.30
2023-01-27T09:45:02.584Z,30.77
2023-01-27T09:47:46.620Z,28.08
2023-01-27T09:50:55.177Z,32.20
2023-01-27T09:54:23.300Z,31.80
2023-01-27T09:57:22.516Z,35.50
2023-01-27T10:00:37.671Z,37.00
2023-01-27T10:03:52.993Z,32.70
2023-01-27T10:06:50.905Z,33.28
2023-01-27T10:09:50.378Z,33.17
2023-01-27T10:12:32.422Z,34.55
2023-01-27T10:15:46.217Z,33.53
2023-01-27T10:18:41.327Z,33.10
2023-01-27T10:21:54.822Z,34.33
2023-01-27T10:24:57.650Z,34.72
2023-01-27T10:27:30.947Z,36.67
2023-01-27T10:30:15.135Z,33.03
2023-01-27T10:32:55.581Z,36.50
2023-01-27T10:35:50.428Z,35.13
2023-01-27T10:38:35.895Z,35.55
2023-01-27T10:41:31.016Z,35.92
2023-01-27T10:44:22.323Z,37.58
2023-01-27T10:47:11.288Z,35.90
2023-01-27T10:49:57.819Z,38.63
2023-01-27T10:52:46.589Z,38.58
2023-01-27T10:55:25.627Z,34.30
2023-01-27T10:58:10.468Z,39.20
2023-01-27T11:01:19.204Z,40.53
2023-01-27T11:04:08.573Z,38.78
2023-01-27T11:06:41.496Z,36.95
2023-01-27T11:10:09.681Z,38.88
2023-01-27T11:13:04.051Z,37.42
2023-01-27T11:15:34.496Z,32.55
2023-01-27T11:18:25.339Z,35.83
2023-01-27T11:21:18.218Z,36.25
2023-01-27T11:23:55.940Z,33.50
2023-01-27T11:26:52.592Z,43.85
2023-01-27T11:29:41.798Z,40.75
2023-01-27T11:32:18.825Z,38.00
2023-01-27T11:35:13.856Z,43.00
2023-01-27T11:37:45.538Z,38.83
2023-01-27T11:40:33.966Z,46.47
2023-01-27T11:43:02.808Z,40.97
2023-01-27T11:45:35.777Z,39.10
2023-01-27T11:48:08.003Z,41.55
2023-01-27T11:50:36.761Z,41.15
2023-01-27T11:53:28.300Z,42.25
2023-01-27T11:56:07.588Z,40.70
2023-01-27T11:58:53.041Z,42.88
2023-01-27T12:01:36.388Z,39.95
2023-01-27T12:04:19.602Z,40.85
2023-01-27T12:06:56.781Z,41.60
2023-01-27T12:09:37.322Z,39.45
2023-01-27T12:12:20.835Z,32.75
2023-01-27T12:14:58.949Z,43.40
2023-01-27T12:17:53.933Z,43.17
2023-01-27T12:20:30.443Z,41.65
2023-01-27T12:23:17.647Z,39.53
2023-01-27T12:26:07.827Z,45.65
2023-01-27T12:28:53.301Z,46.42
2023-01-27T12:31:32.148Z,49.40
2023-01-27T12:34:28.288Z,48.42
2023-01-27T12:36:56.741Z,44.90
2023-01-27T12:39:48.576Z,49.20
2023-01-27T12:42:43.611Z,44.53
2023-01-27T12:45:20.972Z,47.40
2023-01-27T12:48:01.804Z,49.17
2023-01-27T12:50:35.845Z,45.70
2023-01-27T12:53:20.529Z,47.13
2023-01-27T12:56:13.587Z,42.63
2023-01-27T12:58:53.949Z,43.75
2023-01-27T13:01:27.014Z,38.75
2023-01-27T13:04:17.459Z,43.00
2023-01-27T13:06:52.995Z,39.05
2023-01-27T13:09:36.385Z,43.10
2023-01-27T13:12:49.449Z,38.65
2023-01-27T13:15:31.500Z,37.45
2023-01-27T13:18:11.519Z,36.33
2023-01-27T13:20:57.403Z,39.45
2023-01-27T13:23:34.967Z,29.35
2023-01-27T13:26:05.638Z,29.60
2023-01-27T13:28:53.598Z,29.10
2023-01-27T13:31:58.348Z,35.40
2023-01-27T13:35:01.401Z,36.97
2023-01-27T13:40:15.092Z,39.55
2023-01-27T13:42:55.627Z,34.25
2023-01-27T13:45:33.007Z,32.95
2023-01-27T13:48:19.888Z,36.30
2023-01-27T13:51:01.586Z,29.92
2023-01-27T13:53:28.676Z,30.60
2023-01-27T13:56:20.745Z,29.73
2023-01-27T13:59:19.951Z,32.85
2023-01-27T14:02:33.212Z,33.22
2023-01-27T14:05:43.925Z,33.50
2023-01-27T14:08:20.290Z,31.23
2023-01-27T14:11:31.969Z,32.42
2023-01-27T14:14:24.485Z,29.63
2023-01-27T14:17:12.048Z,33.28
2023-01-27T14:20:19.964Z,31.75
2023-01-27T14:23:14.356Z,25.88
2023-01-27T14:26:17.277Z,25.20
2023-01-27T14:29:13.533Z,26.73
2023-01-27T14:32:06.145Z,24.20
2023-01-27T14:34:56.449Z,24.85
2023-01-27T14:37:50.643Z,27.45
2023-01-27T14:40:28.125Z,25.20
2023-01-27T14:43:27.938Z,26.77
2023-01-27T14:46:25.923Z,23.73
2023-01-27T14:49:14.476Z,24.42
2023-01-27T14:52:18.895Z,22.52
2023-01-27T14:55:09.511Z,22.80
2023-01-27T14:57:53.130Z,25.75
2023-01-27T15:00:52.630Z,24.38
2023-01-27T15:03:47.900Z,25.40
2023-01-27T15:06:31.201Z,25.33
2023-01-27T15:09:20.622Z,22.98
2023-01-27T15:12:16.095Z,22.70
2023-01-27T15:15:44.224Z,26.98
2023-01-27T15:18:21.663Z,29.42
2023-01-27T15:21:47.981Z,30.63
2023-01-27T15:25:04.181Z,30.25
2023-01-27T15:27:31.912Z,30.02
2023-01-27T15:30:35.364Z,27.33
2023-01-27T15:35:36.123Z,23.00
2023-01-27T15:38:07.835Z,27.88
2023-01-27T15:41:17.273Z,25.87
2023-01-27T15:44:17.582Z,24.75
2023-01-27T15:46:50.009Z,26.23
2023-01-27T15:52:20.744Z,33.00
2023-01-27T15:54:51.988Z,32.78
2023-01-27T15:57:36.873Z,27.20
2023-01-27T16:00:39.940Z,29.05
2023-01-27T16:03:32.936Z,24.65
2023-01-27T16:06:14.678Z,28.77
2023-01-27T16:08:48.687Z,33.28
2023-01-27T16:11:28.259Z,27.63
2023-01-27T16:14:16.849Z,25.02
2023-01-27T16:17:08.894Z,22.95
2023-01-27T16:19:47.859Z,25.00
2023-01-27T16:22:19.758Z,32.38
2023-01-27T16:25:23.177Z,27.42
2023-01-27T16:28:05.886Z,27.23
2023-01-27T16:30:46.912Z,24.55
2023-01-27T16:33:37.102Z,23.02
2023-01-27T16:36:36.852Z,27.25
2023-01-27T16:39:25.369Z,25.10
2023-01-27T16:42:01.607Z,29.17
2023-01-27T16:44:48.630Z,23.02
2023-01-27T16:47:30.307Z,24.52
2023-01-27T16:49:59.694Z,26.52
2023-01-27T16:52:41.193Z,21.75
2023-01-27T16:55:24.143Z,25.98
2023-01-27T16:57:53.960Z,22.25
2023-01-27T17:00:29.648Z,25.70
2023-01-27T17:03:02.849Z,23.90
2023-01-27T17:05:30.254Z,19.02
2023-01-27T17:08:27.872Z,17.33
2023-01-27T17:11:25.382Z,20.85
2023-01-27T17:14:04.188Z,18.45
2023-01-27T17:16:40.104Z,25.48
2023-01-27T17:19:30.006Z,23.23
2023-01-27T17:22:04.464Z,32.20
2023-01-27T17:24:50.734Z,23.60
2023-01-27T17:27:28.947Z,30.23
2023-01-27T17:30:08.381Z,25.55
2023-01-27T17:32:38.051Z,27.52
2023-01-27T17:35:19.341Z,30.45
2023-01-27T17:37:46.400Z,24.85
2023-01-27T17:40:25.406Z,30.10
2023-01-27T17:42:52.719Z,26.08
2023-01-27T17:45:34.049Z,30.55
2023-01-27T17:48:04.777Z,32.17
2023-01-27T17:50:39.279Z,32.30
2023-01-27T17:53:17.706Z,31.33
2023-01-27T17:55:45.166Z,33.00
2023-01-27T17:58:24.851Z,33.17
2023-01-27T18:00:56.260Z,32.78
2023-01-27T18:03:32.961Z,37.60
2023-01-27T18:06:01.854Z,34.25
2023-01-27T18:08:36.006Z,39.00
2023-01-27T18:11:33.992Z,36.67
2023-01-27T18:14:18.020Z,36.85
2023-01-27T18:16:45.295Z,34.67
2023-01-27T18:19:23.655Z,38.83
2023-01-27T18:22:12.685Z,39.40
2023-01-27T18:24:52.098Z,42.13
2023-01-27T18:27:33.565Z,33.53
2023-01-27T18:30:12.080Z,41.53
2023-01-27T18:32:42.968Z,36.80
2023-01-27T18:35:42.815Z,40.30
2023-01-27T18:38:24.707Z,40.67
2023-01-27T18:40:52.960Z,37.63
2023-01-27T18:43:19.936Z,42.65
2023-01-27T18:45:47.308Z,37.78
2023-01-27T18:48:16.852Z,38.88
2023-01-27T18:50:46.833Z,45.90
2023-01-27T18:53:19.962Z,40.22
2023-01-27T18:55:47.076Z,38.53
2023-01-27T18:58:14.113Z,45.72
2023-01-27T19:00:52.620Z,42.50
2023-01-27T19:03:30.451Z,44.30
2023-01-27T19:05:57.713Z,41.35
2023-01-27T19:08:25.313Z,49.40
2023-01-27T19:10:53.006Z,40.25
2023-01-27T19:13:33.395Z,42.95
2023-01-27T19:16:00.590Z,42.17
2023-01-27T19:18:38.383Z,36.08
2023-01-27T19:21:05.804Z,38.22
2023-01-27T19:23:33.341Z,41.05
2023-01-27T19:26:03.745Z,38.40
2023-01-27T19:28:35.224Z,43.63
2023-01-27T19:31:09.684Z,38.53
2023-01-27T19:33:38.540Z,38.47
2023-01-27T19:36:30.912Z,37.95
2023-01-27T19:39:13.791Z,40.72
2023-01-27T19:41:42.073Z,42.92
2023-01-27T19:44:10.501Z,45.05
2023-01-27T19:46:40.191Z,44.92
2023-01-27T19:49:15.687Z,39.95
2023-01-27T19:51:43.328Z,50.10
2023-01-27T19:54:10.749Z,45.17
2023-01-27T19:56:38.346Z,47.92
2023-01-27T19:59:05.380Z,47.25
2023-01-27T20:01:32.377Z,49.05
2023-01-27T20:03:59.350Z,52.55
2023-01-27T20:06:30.947Z,54.20
2023-01-27T20:09:00.004Z,55.28
2023-01-27T20:11:37.776Z,60.42
2023-01-27T20:14:16.270Z,51.72
2023-01-27T20:16:44.168Z,53.17
2023-01-27T20:19:16.596Z,52.95
2023-01-27T20:21:46.050Z,51.17
2023-01-27T20:24:19.894Z,53.17
2023-01-27T20:26:46.998Z,58.10
2023-01-27T20:29:14.164Z,54.55
2023-01-27T20:31:44.183Z,65.13
2023-01-27T20:34:11.481Z,59.17
2023-01-27T20:36:38.560Z,62.65
2023-01-27T20:39:05.652Z,56.58
2023-01-27T20:41:33.027Z,53.13
2023-01-27T20:44:00.603Z,56.40
2023-01-27T20:46:29.533Z,57.13
2023-01-27T20:48:58.824Z,60.38
2023-01-27T20:51:25.743Z,56.80
2023-01-27T20:53:53.953Z,59.75
2023-01-27T20:56:23.696Z,52.83
2023-01-27T20:58:51.109Z,52.05
2023-01-27T21:01:22.386Z,58.97
2023-01-27T21:03:50.582Z,62.20
2023-01-27T21:06:20.011Z,53.75
2023-01-27T21:08:49.194Z,54.60
2023-01-27T21:11:19.551Z,55.08
2023-01-27T21:13:48.428Z,51.92
2023-01-27T21:16:15.462Z,56.53
2023-01-27T21:18:43.972Z,53.95
2023-01-27T21:21:28.684Z,52.75
2023-01-27T21:23:58.021Z,52.17
2023-01-27T21:26:25.187Z,49.30
2023-01-27T21:28:52.697Z,58.47
2023-01-27T21:31:24.233Z,58.13
2023-01-27T21:33:53.984Z,51.47
2023-01-27T21:36:21.090Z,54.67
2023-01-27T21:38:56.457Z,52.92
2023-01-27T21:41:43.861Z,56.47
2023-01-27T21:44:40.076Z,57.47
2023-01-27T21:47:12.768Z,53.72
2023-01-27T21:50:00.766Z,56.72
2023-01-27T21:52:39.488Z,54.47
2023-01-27T21:55:11.187Z,50.47
2023-01-27T21:57:39.261Z,68.05
2023-01-27T22:00:10.694Z,62.33
2023-01-27T22:02:41.285Z,58.28
2023-01-27T22:05:10.906Z,53.42
2023-01-27T22:07:38.556Z,51.65
2023-01-27T22:10:19.552Z,53.40
2023-01-27T22:12:48.023Z,53.00
2023-01-27T22:15:18.150Z,56.67
2023-01-27T22:17:46.460Z,53.65
2023-01-27T22:20:18.077Z,53.42
2023-01-27T22:22:45.839Z,58.27
2023-01-27T22:25:16.007Z,53.15
2023-01-27T22:27:43.892Z,56.10
2023-01-27T22:30:18.357Z,55.90
2023-01-27T22:32:47.185Z,51.22
2023-01-27T22:35:17.520Z,57.17
2023-01-27T22:37:45.758Z,57.35
2023-01-27T22:40:13.824Z,57.13
2023-01-27T22:42:43.046Z,54.20
2023-01-27T22:45:10.979Z,52.70
2023-01-27T22:47:38.286Z,52.45
2023-01-27T22:50:19.015Z,51.83
2023-01-27T22:52:46.249Z,42.85
2023-01-27T22:55:13.968Z,47.95
2023-01-27T22:57:45.408Z,43.80
2023-01-27T23:00:13.531Z,43.05
2023-01-27T23:02:40.876Z,46.58
2023-01-27T23:05:08.467Z,43.53
2023-01-27T23:07:35.426Z,45.75
2023-01-27T23:10:02.905Z,39.53
2023-01-27T23:12:30.915Z,42.78
2023-01-27T23:15:01.642Z,43.38
2023-01-27T23:17:29.141Z,39.10
2023-01-27T23:19:56.206Z,39.03
2023-01-27T23:22:23.195Z,39.47
2023-01-27T23:24:50.711Z,43.00
2023-01-27T23:27:18.446Z,46.10
2023-01-27T23:29:46.729Z,44.80
2023-01-27T23:32:14.348Z,40.75
2023-01-27T23:34:42.167Z,34.38
2023-01-27T23:37:09.101Z,40.08
2023-01-27T23:39:36.141Z,42.67
2023-01-27T23:42:04.307Z,38.90
2023-01-27T23:44:33.432Z,40.08
2023-01-27T23:47:00.898Z,33.78
2023-01-27T23:49:27.920Z,30.25
2023-01-27T23:51:54.977Z,23.65
2023-01-27T23:54:21.953Z,22.52
2023-01-27T23:56:49.436Z,23.65
2023-01-27T23:59:16.419Z,22.73
